Anthem Of The Seas — C6BI7 — position and weather

sailwx.info

Track history (hours):
 
Tides and Currents Weather Stations Pressure Air Temp Water Temp Dewpoint Dewpoint Depression Visibility Wind Speed Wind Dir Waves Ship Positions

Anthem Of The Seas

Last reported at 2018-Jul-22 00:18 UTC. Time now 2018-Jul-22 07:00 UTC.
Position N 39°30' W 073°53'.

Length 348 m; draft 8.8 m.

Type: Passenger vessel. MMSI: 311000274.

Date/timePositionNaut miles runAvg speedWind from/ knotsBaromVisibWave heightAir tempDewpointWater temp
2018-Jul-22 00:18N 39°30' W 073°53'621.4
2018-Jul-22 00:00N 39°36' W 073°52'1021.2
2018-Jul-21 23:30N 39°47' W 073°50'1121.3
2018-Jul-21 22:59N 39°58' W 073°51'3119.0
2018-Jul-21 21:21N 40°29' W 073°53'617.4
2018-Jul-21 21:00N 40°31' W 074°00'815.2
2018-Jul-21 20:30N 40°39' W 074°03'2 3.0
2018-Jul-21 19:59N 40°40' W 074°04'0 0.0
2018-Jul-21 19:29N 40°40' W 074°04'0 0.0
2018-Jul-21 18:56N 40°40' W 074°04'0 0.0
2018-Jul-21 18:29N 40°40' W 074°04'0 0.0
2018-Jul-21 17:59N 40°40' W 074°04'0 0.0
2018-Jul-21 17:29N 40°40' W 074°04'0 0.0
2018-Jul-21 16:56N 40°40' W 074°04'0 0.0
2018-Jul-21 16:29N 40°40' W 074°04'0 0.0
2018-Jul-21 15:59N 40°40' W 074°04'0 0.0
2018-Jul-21 15:29N 40°40' W 074°04'0 0.0
2018-Jul-21 14:59N 40°40' W 074°04'0 0.0
2018-Jul-21 14:29N 40°40' W 074°04'0 0.0
2018-Jul-21 13:59N 40°40' W 074°04'0 0.0
2018-Jul-21 13:29N 40°40' W 074°04'0 0.0
2018-Jul-21 12:56N 40°40' W 074°04'0 0.0
2018-Jul-21 12:29N 40°40' W 074°04'0 0.0
2018-Jul-21 11:59N 40°40' W 074°04'0 0.0
2018-Jul-21 11:26N 40°40' W 074°04'0 0.1
2018-Jul-21 11:00N 40°40' W 074°04'3 6.0
2018-Jul-21 10:30N 40°37' W 074°03'714.4
2018-Jul-21 10:00N 40°31' W 073°59'915.3
2018-Jul-21 09:25N 40°27' W 073°48'714.2
2018-Jul-21 08:57N 40°20' W 073°46'2120.6
2018-Jul-21 07:56N 39°59' W 073°43'920.8
2018-Jul-21 07:30N 39°50' W 073°41'1021.0
2018-Jul-21 07:01N 39°40' W 073°40'1322.6
2018-Jul-21 06:27N 39°27' W 073°39'1022.5
2018-Jul-21 05:59N 39°17' W 073°38'1622.4
2018-Jul-21 05:17N 39°01' W 073°37'5624.2
2018-Jul-21 03:00N 38°06' W 073°30'54121.6 100 / 311018.810.8 25.0 25.0
2018-Jul-20 02:00N 29°06' W 072°54'49920.8 210 / 81019.210.8 28.0 29.0
2018-Jul-19 02:00N 20°48' W 072°24'238 9.9 090 / 391017.010.8 29.0 29.0
2018-Jul-18 02:00N 19°18' W 068°30'30312.1 070 / 171019.810.8 29.0 29.0
2018-Jul-17 00:57N 18°02' W 063°21'919.8
2018-Jul-17 00:29N 18°01' W 063°11'8 6.0
2018-Jul-16 23:07N 18°01' W 063°03'0 0.0
2018-Jul-16 22:50N 18°01' W 063°03'0 0.0
2018-Jul-16 22:07N 18°01' W 063°03'0 0.0
2018-Jul-16 21:37N 18°01' W 063°03'0 0.0
2018-Jul-16 21:26N 18°01' W 063°03'0 0.0
2018-Jul-16 20:37N 18°01' W 063°03'0 0.0
2018-Jul-16 20:25N 18°01' W 063°03'0 0.0
2018-Jul-16 19:52N 18°01' W 063°03'0 0.0
2018-Jul-16 19:28N 18°01' W 063°03'0 0.0
2018-Jul-16 18:43N 18°01' W 063°03'0 0.0
2018-Jul-16 18:25N 18°01' W 063°03'0 0.0
2018-Jul-16 17:55N 18°01' W 063°03'0 0.0
2018-Jul-16 17:28N 18°01' W 063°03'0 0.0
2018-Jul-16 16:58N 18°01' W 063°03'0 0.0
2018-Jul-16 16:28N 18°01' W 063°03'0 0.0
2018-Jul-16 15:43N 18°01' W 063°03'1 1.3
2018-Jul-16 15:16N 18°00' W 063°03'2 9.1
2018-Jul-16 15:00N 18°00' W 063°06'1219.4
2018-Jul-16 14:25N 18°06' W 063°16'921.2
2018-Jul-16 13:59N 18°12' W 063°23'1021.4
2018-Jul-16 13:30N 18°22' W 063°27'24921.6
2018-Jul-16 02:00N 22°30' W 063°48'49920.0 100 / 271020.610.8 29.0 29.0
2018-Jul-15 01:00N 30°48' W 064°24'25310.5 220 / 281020.0 5.4 28.0 28.0
2018-Jul-14 01:00N 34°30' W 066°48'35720.4 200 / 451015.5 2.2 27.0 26.0
2018-Jul-13 07:28N 38°50' W 071°53'920.6
2018-Jul-13 07:00N 38°57' W 072°01'1020.2
2018-Jul-13 06:30N 39°05' W 072°10'1020.3
2018-Jul-13 06:00N 39°12' W 072°19'2220.5
2018-Jul-13 04:55N 39°29' W 072°38'920.8
2018-Jul-13 04:30N 39°35' W 072°46'1020.8
2018-Jul-13 04:01N 39°42' W 072°56'1121.0
2018-Jul-13 03:30N 39°50' W 073°05'1020.6
2018-Jul-13 03:01N 39°57' W 073°14'1020.6
2018-Jul-13 02:30N 40°04' W 073°24'1020.2
2018-Jul-13 02:00N 40°12' W 073°33'2129.4
2018-Jul-13 02:00N 40°12' W 073°30'1123.2 200 / 121023.710.8 24.0 23.0
2018-Jul-13 01:30N 40°19' W 073°41'917.7
2018-Jul-13 01:00N 40°26' W 073°50'2 4.1
2018-Jul-13 00:30N 40°27' W 073°51'3 5.4
2018-Jul-13 00:01N 40°27' W 073°47'1121.1
2018-Jul-12 23:30N 40°20' W 073°36'918.4
2018-Jul-12 23:00N 40°12' W 073°31'713.3
2018-Jul-12 22:28N 40°16' W 073°38'816.7
2018-Jul-12 21:58N 40°23' W 073°45'813.5
2018-Jul-12 21:24N 40°28' W 073°52'614.3
2018-Jul-12 21:00N 40°31' W 073°59'713.6
2018-Jul-12 20:31N 40°37' W 074°03'3 6.1
2018-Jul-12 19:58N 40°40' W 074°04'0 0.0
2018-Jul-12 19:28N 40°40' W 074°04'0 0.0
2018-Jul-12 18:58N 40°40' W 074°04'0 0.0
2018-Jul-12 18:28N 40°40' W 074°04'0 0.0
2018-Jul-12 17:58N 40°40' W 074°04'0 0.0
2018-Jul-12 17:28N 40°40' W 074°04'0 0.0
2018-Jul-12 16:58N 40°40' W 074°04'0 0.0
2018-Jul-12 16:28N 40°40' W 074°04'0 0.0
2018-Jul-12 15:58N 40°40' W 074°04'0 0.0
2018-Jul-12 15:28N 40°40' W 074°04'0 0.0
2018-Jul-12 14:58N 40°40' W 074°04'0 0.0
2018-Jul-12 14:28N 40°40' W 074°04'0 0.0
2018-Jul-12 13:58N 40°40' W 074°04'0 0.0
2018-Jul-12 13:25N 40°40' W 074°04'0 0.0
2018-Jul-12 12:58N 40°40' W 074°04'0 0.0
2018-Jul-12 12:28N 40°40' W 074°04'0 0.0
2018-Jul-12 11:58N 40°40' W 074°04'0 0.0
2018-Jul-12 11:28N 40°40' W 074°04'1 1.5
2018-Jul-12 11:00N 40°39' W 074°03'2 3.4
2018-Jul-12 10:30N 40°38' W 074°03'612.6
2018-Jul-12 10:00N 40°32' W 074°01'917.1
2018-Jul-12 09:30N 40°28' W 073°51'611.1
2018-Jul-12 09:01N 40°23' W 073°47'1019.2
2018-Jul-12 08:30N 40°14' W 073°45'1020.4
2018-Jul-12 08:00N 40°04' W 073°43'1020.4
2018-Jul-12 07:30N 39°53' W 073°41'1020.4
2018-Jul-12 07:00N 39°43' W 073°39'1020.5
2018-Jul-12 06:30N 39°34' W 073°35'1120.7
2018-Jul-12 06:00N 39°24' W 073°31'1121.9
2018-Jul-12 05:31N 39°14' W 073°26'1121.9
2018-Jul-12 05:00N 39°03' W 073°22'1321.7
2018-Jul-12 04:25N 38°51' W 073°16'5721.7
2018-Jul-12 01:46N 37°58' W 072°47'821.9
2018-Jul-12 01:25N 37°51' W 072°43'921.4
2018-Jul-12 01:00N 37°43' W 072°38'2140.2
2018-Jul-12 01:00N 37°42' W 072°36'817.2 010 / 151015.310.8 26.0 29.0
2018-Jul-12 00:30N 37°34' W 072°32'  
Track history (hours):
 
Tides and Currents Weather Stations Pressure Air Temp Water Temp Dewpoint Dewpoint Depression Visibility Wind Speed Wind Dir Waves Ship Positions

Anthem Of The Seas

Last reported at 2018-Jul-22 00:18 UTC. Time now 2018-Jul-22 07:00 UTC.
Position N 39°30' W 073°53'.

Length 348 m; draft 8.8 m.

Type: Passenger vessel. MMSI: 311000274.

Date/timePositionNaut miles runAvg speedWind from/ knotsBaromVisibWave heightAir tempDewpointWater temp
2018-Jul-22 00:18N 39°30' W 073°53'621.4
2018-Jul-22 00:00N 39°36' W 073°52'1021.2
2018-Jul-21 23:30N 39°47' W 073°50'1121.3
2018-Jul-21 22:59N 39°58' W 073°51'3119.0
2018-Jul-21 21:21N 40°29' W 073°53'617.4
2018-Jul-21 21:00N 40°31' W 074°00'815.2
2018-Jul-21 20:30N 40°39' W 074°03'2 3.0
2018-Jul-21 19:59N 40°40' W 074°04'0 0.0
2018-Jul-21 19:29N 40°40' W 074°04'0 0.0
2018-Jul-21 18:56N 40°40' W 074°04'0 0.0
2018-Jul-21 18:29N 40°40' W 074°04'0 0.0
2018-Jul-21 17:59N 40°40' W 074°04'0 0.0
2018-Jul-21 17:29N 40°40' W 074°04'0 0.0
2018-Jul-21 16:56N 40°40' W 074°04'0 0.0
2018-Jul-21 16:29N 40°40' W 074°04'0 0.0
2018-Jul-21 15:59N 40°40' W 074°04'0 0.0
2018-Jul-21 15:29N 40°40' W 074°04'0 0.0
2018-Jul-21 14:59N 40°40' W 074°04'0 0.0
2018-Jul-21 14:29N 40°40' W 074°04'0 0.0
2018-Jul-21 13:59N 40°40' W 074°04'0 0.0
2018-Jul-21 13:29N 40°40' W 074°04'0 0.0
2018-Jul-21 12:56N 40°40' W 074°04'0 0.0
2018-Jul-21 12:29N 40°40' W 074°04'0 0.0
2018-Jul-21 11:59N 40°40' W 074°04'0 0.0
2018-Jul-21 11:26N 40°40' W 074°04'0 0.1
2018-Jul-21 11:00N 40°40' W 074°04'3 6.0
2018-Jul-21 10:30N 40°37' W 074°03'714.4
2018-Jul-21 10:00N 40°31' W 073°59'915.3
2018-Jul-21 09:25N 40°27' W 073°48'714.2
2018-Jul-21 08:57N 40°20' W 073°46'2120.6
2018-Jul-21 07:56N 39°59' W 073°43'920.8
2018-Jul-21 07:30N 39°50' W 073°41'1021.0
2018-Jul-21 07:01N 39°40' W 073°40'1322.6
2018-Jul-21 06:27N 39°27' W 073°39'1022.5
2018-Jul-21 05:59N 39°17' W 073°38'1622.4
2018-Jul-21 05:17N 39°01' W 073°37'5624.2
2018-Jul-21 03:00N 38°06' W 073°30'54121.6 100 / 311018.810.8 25.0 25.0
2018-Jul-20 02:00N 29°06' W 072°54'49920.8 210 / 81019.210.8 28.0 29.0
2018-Jul-19 02:00N 20°48' W 072°24'238 9.9 090 / 391017.010.8 29.0 29.0
2018-Jul-18 02:00N 19°18' W 068°30'30312.1 070 / 171019.810.8 29.0 29.0
2018-Jul-17 00:57N 18°02' W 063°21'919.8
2018-Jul-17 00:29N 18°01' W 063°11'8 6.0
2018-Jul-16 23:07N 18°01' W 063°03'0 0.0
2018-Jul-16 22:50N 18°01' W 063°03'0 0.0
2018-Jul-16 22:07N 18°01' W 063°03'0 0.0
2018-Jul-16 21:37N 18°01' W 063°03'0 0.0
2018-Jul-16 21:26N 18°01' W 063°03'0 0.0
2018-Jul-16 20:37N 18°01' W 063°03'0 0.0
2018-Jul-16 20:25N 18°01' W 063°03'0 0.0
2018-Jul-16 19:52N 18°01' W 063°03'0 0.0
2018-Jul-16 19:28N 18°01' W 063°03'0 0.0
2018-Jul-16 18:43N 18°01' W 063°03'0 0.0
2018-Jul-16 18:25N 18°01' W 063°03'0 0.0
2018-Jul-16 17:55N 18°01' W 063°03'0 0.0
2018-Jul-16 17:28N 18°01' W 063°03'0 0.0
2018-Jul-16 16:58N 18°01' W 063°03'0 0.0
2018-Jul-16 16:28N 18°01' W 063°03'0 0.0
2018-Jul-16 15:43N 18°01' W 063°03'1 1.3
2018-Jul-16 15:16N 18°00' W 063°03'2 9.1
2018-Jul-16 15:00N 18°00' W 063°06'1219.4
2018-Jul-16 14:25N 18°06' W 063°16'921.2
2018-Jul-16 13:59N 18°12' W 063°23'1021.4
2018-Jul-16 13:30N 18°22' W 063°27'24921.6
2018-Jul-16 02:00N 22°30' W 063°48'49920.0 100 / 271020.610.8 29.0 29.0
2018-Jul-15 01:00N 30°48' W 064°24'25310.5 220 / 281020.0 5.4 28.0 28.0
2018-Jul-14 01:00N 34°30' W 066°48'35720.4 200 / 451015.5 2.2 27.0 26.0
2018-Jul-13 07:28N 38°50' W 071°53'920.6
2018-Jul-13 07:00N 38°57' W 072°01'1020.2
2018-Jul-13 06:30N 39°05' W 072°10'1020.3
2018-Jul-13 06:00N 39°12' W 072°19'2220.5
2018-Jul-13 04:55N 39°29' W 072°38'920.8
2018-Jul-13 04:30N 39°35' W 072°46'1020.8
2018-Jul-13 04:01N 39°42' W 072°56'1121.0
2018-Jul-13 03:30N 39°50' W 073°05'1020.6
2018-Jul-13 03:01N 39°57' W 073°14'1020.6
2018-Jul-13 02:30N 40°04' W 073°24'1020.2
2018-Jul-13 02:00N 40°12' W 073°33'2129.4
2018-Jul-13 02:00N 40°12' W 073°30'1123.2 200 / 121023.710.8 24.0 23.0
2018-Jul-13 01:30N 40°19' W 073°41'917.7
2018-Jul-13 01:00N 40°26' W 073°50'2 4.1
2018-Jul-13 00:30N 40°27' W 073°51'3 5.4
2018-Jul-13 00:01N 40°27' W 073°47'1121.1
2018-Jul-12 23:30N 40°20' W 073°36'918.4
2018-Jul-12 23:00N 40°12' W 073°31'713.3
2018-Jul-12 22:28N 40°16' W 073°38'816.7
2018-Jul-12 21:58N 40°23' W 073°45'813.5
2018-Jul-12 21:24N 40°28' W 073°52'614.3
2018-Jul-12 21:00N 40°31' W 073°59'713.6
2018-Jul-12 20:31N 40°37' W 074°03'3 6.1
2018-Jul-12 19:58N 40°40' W 074°04'0 0.0
2018-Jul-12 19:28N 40°40' W 074°04'0 0.0
2018-Jul-12 18:58N 40°40' W 074°04'0 0.0
2018-Jul-12 18:28N 40°40' W 074°04'0 0.0
2018-Jul-12 17:58N 40°40' W 074°04'0 0.0
2018-Jul-12 17:28N 40°40' W 074°04'0 0.0
2018-Jul-12 16:58N 40°40' W 074°04'0 0.0
2018-Jul-12 16:28N 40°40' W 074°04'0 0.0
2018-Jul-12 15:58N 40°40' W 074°04'0 0.0
2018-Jul-12 15:28N 40°40' W 074°04'0 0.0
2018-Jul-12 14:58N 40°40' W 074°04'0 0.0
2018-Jul-12 14:28N 40°40' W 074°04'0 0.0
2018-Jul-12 13:58N 40°40' W 074°04'0 0.0
2018-Jul-12 13:25N 40°40' W 074°04'0 0.0
2018-Jul-12 12:58N 40°40' W 074°04'0 0.0
2018-Jul-12 12:28N 40°40' W 074°04'0 0.0
2018-Jul-12 11:58N 40°40' W 074°04'0 0.0
2018-Jul-12 11:28N 40°40' W 074°04'1 1.5
2018-Jul-12 11:00N 40°39' W 074°03'2 3.4
2018-Jul-12 10:30N 40°38' W 074°03'612.6
2018-Jul-12 10:00N 40°32' W 074°01'917.1
2018-Jul-12 09:30N 40°28' W 073°51'611.1
2018-Jul-12 09:01N 40°23' W 073°47'1019.2
2018-Jul-12 08:30N 40°14' W 073°45'1020.4
2018-Jul-12 08:00N 40°04' W 073°43'1020.4
2018-Jul-12 07:30N 39°53' W 073°41'1020.4
2018-Jul-12 07:00N 39°43' W 073°39'1020.5
2018-Jul-12 06:30N 39°34' W 073°35'1120.7
2018-Jul-12 06:00N 39°24' W 073°31'1121.9
2018-Jul-12 05:31N 39°14' W 073°26'1121.9
2018-Jul-12 05:00N 39°03' W 073°22'1321.7
2018-Jul-12 04:25N 38°51' W 073°16'5721.7
2018-Jul-12 01:46N 37°58' W 072°47'821.9
2018-Jul-12 01:25N 37°51' W 072°43'921.4
2018-Jul-12 01:00N 37°43' W 072°38'2140.2
2018-Jul-12 01:00N 37°42' W 072°36'817.2 010 / 151015.310.8 26.0 29.0
2018-Jul-12 00:30N 37°34' W 072°32'  

Dump ship's entire track history